Time;durP1;ratioP1;P1;durP2;ratioP2;P2;SDS_P1;SDS_P2;PMS_P1;PMS_P2;Temp;Humidity;BMP_temperature;BMP_pressure;BME280_temperature;BME280_humidity;BME280_pressure;Samples;Min_cycle;Max_cycle;Signal;HPM_P1;HPM_P2
2023/12/14 00:01:18;;;;;;;20.35;13.68;;;;;;;8.45;100.00;97268.00;5028798;28;20183;-70
2023/12/14 00:03:46;;;;;;;21.08;14.02;;;;;;;8.58;100.00;97267.50;5038193;28;20028;-71
2023/12/14 00:06:13;;;;;;;22.58;14.60;;;;;;;8.58;100.00;97275.28;5045279;28;20688;-70
2023/12/14 00:08:41;;;;;;;19.95;13.55;;;;;;;8.55;100.00;97268.66;5030684;28;20043;-71
2023/12/14 00:11:07;;;;;;;20.85;14.00;;;;;;;8.46;100.00;97265.25;5032264;28;20036;-70
2023/12/14 00:13:33;;;;;;;20.27;13.65;;;;;;;8.45;100.00;97262.81;5033469;28;20047;-72
2023/12/14 00:16:01;;;;;;;19.45;13.73;;;;;;;8.22;100.00;97270.44;5026790;28;20386;-69
2023/12/14 00:18:27;;;;;;;19.52;13.30;;;;;;;8.12;100.00;97267.19;5049521;28;20039;-70
2023/12/14 00:20:53;;;;;;;23.48;13.80;;;;;;;8.12;100.00;97267.19;5044895;28;20056;-69
2023/12/14 00:23:21;;;;;;;20.02;13.45;;;;;;;8.13;100.00;97268.81;5044456;28;20039;-66
2023/12/14 00:25:47;;;;;;;19.60;13.52;;;;;;;8.03;100.00;97272.38;5036157;28;20026;-71
2023/12/14 00:28:12;;;;;;;19.45;12.57;;;;;;;7.65;100.00;97224.66;5043177;28;20036;-70
2023/12/14 00:30:38;;;;;;;19.52;12.93;;;;;;;7.84;100.00;97259.75;5031385;28;20308;-67
2023/12/14 00:33:06;;;;;;;19.67;12.85;;;;;;;7.50;100.00;97217.50;5044223;28;20039;-68
2023/12/14 00:35:36;;;;;;;19.33;13.57;;;;;;;7.64;100.00;97260.03;5044313;28;20025;-71
2023/12/14 00:38:03;;;;;;;18.63;12.68;;;;;;;7.45;100.00;97226.72;5035650;28;20426;-69
2023/12/14 00:40:29;;;;;;;18.05;12.10;;;;;;;7.80;100.00;97261.84;5046244;28;20067;-71
2023/12/14 00:42:57;;;;;;;18.15;11.68;;;;;;;7.63;100.00;97265.34;5034920;28;20027;-70
2023/12/14 00:45:24;;;;;;;20.33;11.77;;;;;;;7.62;100.00;97263.75;5038569;28;20137;-70
2023/12/14 00:47:50;;;;;;;17.92;10.45;;;;;;;7.61;100.00;97272.47;5042691;28;20028;-70
2023/12/14 00:50:15;;;;;;;14.68;10.32;;;;;;;7.71;100.00;97280.91;5028394;28;20806;-71
2023/12/14 00:52:41;;;;;;;16.90;10.02;;;;;;;7.74;100.00;97290.13;5045162;28;20028;-71
2023/12/14 00:55:06;;;;;;;16.08;10.38;;;;;;;7.74;100.00;97283.19;5024069;28;20052;-68
2023/12/14 00:57:31;;;;;;;17.10;10.82;;;;;;;7.75;100.00;97284.00;5041939;28;20024;-72
2023/12/14 00:59:57;;;;;;;18.70;10.25;;;;;;;7.45;100.00;97252.56;5027234;28;20028;-71
2023/12/14 01:02:22;;;;;;;16.55;11.55;;;;;;;7.74;100.00;97301.31;5043375;28;20105;-69
2023/12/14 01:04:50;;;;;;;17.27;11.18;;;;;;;7.60;100.00;97304.50;5027508;28;20056;-67
2023/12/14 01:07:15;;;;;;;16.63;11.38;;;;;;;7.59;100.00;97302.88;5025328;28;20047;-69
2023/12/14 01:09:41;;;;;;;17.85;11.77;;;;;;;7.50;100.00;97304.63;5045930;28;20178;-70
2023/12/14 01:12:06;;;;;;;16.38;10.48;;;;;;;7.23;100.00;97256.56;5043258;28;20062;-66
2023/12/14 01:14:31;;;;;;;19.60;11.60;;;;;;;7.51;100.00;97317.41;5042792;28;20509;-71
2023/12/14 01:16:57;;;;;;;19.05;11.55;;;;;;;7.54;100.00;97305.94;5043510;28;20032;-65
2023/12/14 01:19:22;;;;;;;15.20;10.70;;;;;;;7.46;100.00;97303.31;5024951;28;20169;-70
2023/12/14 01:21:48;;;;;;;18.33;11.77;;;;;;;7.47;100.00;97303.16;5022304;28;20028;-71
2023/12/14 01:24:14;;;;;;;16.33;11.25;;;;;;;7.56;100.00;97305.78;5042586;28;20043;-69
2023/12/14 01:26:42;;;;;;;18.90;11.88;;;;;;;7.55;100.00;97307.53;5046095;28;20631;-69
2023/12/14 01:29:08;;;;;;;17.73;11.00;;;;;;;7.47;100.00;97326.44;5043601;28;20039;-72
2023/12/14 01:31:33;;;;;;;17.17;11.23;;;;;;;7.41;100.00;97311.56;5028908;28;20021;-72
2023/12/14 01:33:58;;;;;;;17.80;11.45;;;;;;;7.47;100.00;97320.47;5031678;28;20037;-69
2023/12/14 01:36:25;;;;;;;20.00;12.73;;;;;;;7.15;100.00;97277.19;5045958;28;20082;-69
2023/12/14 01:38:51;;;;;;;17.20;11.30;;;;;;;7.48;100.00;97327.25;5047919;28;20079;-66
2023/12/14 01:41:17;;;;;;;18.60;11.90;;;;;;;7.41;100.00;97329.66;5035852;28;20036;-69
2023/12/14 01:43:43;;;;;;;17.05;11.48;;;;;;;7.28;100.00;97324.09;5033624;28;20593;-70
2023/12/14 01:46:08;;;;;;;19.75;12.15;;;;;;;7.26;100.00;97329.41;5031817;28;20178;-72
2023/12/14 01:48:34;;;;;;;18.48;11.65;;;;;;;7.24;100.00;97325.38;5030887;28;20511;-67
2023/12/14 01:50:59;;;;;;;19.40;12.57;;;;;;;7.15;100.00;97324.53;5045655;28;20103;-71
2023/12/14 01:53:25;;;;;;;17.75;11.15;;;;;;;7.33;100.00;97324.44;5034522;28;20118;-72
2023/12/14 01:55:55;;;;;;;15.00;10.52;;;;;;;6.92;100.00;97280.34;5029376;28;20040;-69
2023/12/14 01:58:20;;;;;;;18.40;11.43;;;;;;;7.19;100.00;97328.44;5047910;28;20040;-71
2023/12/14 02:01:04;;;;;;;17.45;10.90;;;;;;;7.16;100.00;97330.53;5047262;28;20037;-72
2023/12/14 02:03:32;;;;;;;17.35;11.07;;;;;;;7.10;100.00;97331.91;5054221;28;20040;-71
2023/12/14 02:05:57;;;;;;;19.15;11.68;;;;;;;7.09;100.00;97341.47;5051068;28;20028;-70
2023/12/14 02:08:27;;;;;;;17.08;10.55;;;;;;;7.20;100.00;97344.75;5039186;28;20372;-70
2023/12/14 02:10:52;;;;;;;16.10;9.95;;;;;;;7.17;100.00;97352.81;5035429;28;20040;-70
2023/12/14 02:13:22;;;;;;;16.17;10.52;;;;;;;7.28;100.00;97361.13;5032371;28;20064;-67
2023/12/14 02:15:50;;;;;;;19.00;10.77;;;;;;;7.15;100.00;97357.31;5033993;28;20055;-68
2023/12/14 02:18:15;;;;;;;17.65;10.32;;;;;;;7.25;100.00;97358.84;5034778;28;20507;-70
2023/12/14 02:20:43;;;;;;;18.35;10.27;;;;;;;7.21;100.00;97361.88;5043934;28;20040;-72
2023/12/14 02:23:11;;;;;;;16.27;10.75;;;;;;;7.22;100.00;97358.34;5036734;28;20091;-71
2023/12/14 02:25:36;;;;;;;15.85;10.15;;;;;;;6.97;100.00;97316.84;5049578;28;20041;-68
2023/12/14 02:28:04;;;;;;;15.57;10.77;;;;;;;7.27;100.00;97361.28;5049308;28;20061;-70
2023/12/14 02:30:29;;;;;;;15.38;9.57;;;;;;;7.36;100.00;97360.34;5038566;28;20023;-70
2023/12/14 02:32:55;;;;;;;14.90;10.23;;;;;;;7.42;100.00;97359.72;5036397;28;20029;-71
2023/12/14 02:35:23;;;;;;;15.55;9.57;;;;;;;7.58;100.00;97364.16;5054455;28;20027;-69
2023/12/14 02:37:48;;;;;;;14.73;9.25;;;;;;;7.66;100.00;97358.19;5047842;28;20025;-72
2023/12/14 02:40:13;;;;;;;14.70;9.75;;;;;;;7.36;100.00;97325.94;5047429;28;20039;-70
2023/12/14 02:42:39;;;;;;;15.00;9.52;;;;;;;7.71;100.00;97376.66;5033680;28;20544;-67
2023/12/14 02:45:05;;;;;;;15.02;9.93;;;;;;;7.72;100.00;97374.88;5036794;28;20446;-68
2023/12/14 02:47:30;;;;;;;13.55;9.10;;;;;;;7.69;100.00;97381.97;5032793;28;20391;-70
2023/12/14 02:50:01;;;;;;;15.02;10.02;;;;;;;7.76;100.00;97381.34;5035783;28;20039;-71
2023/12/14 02:52:26;;;;;;;15.07;9.43;;;;;;;7.59;100.00;97376.09;5041179;28;20033;-69
2023/12/14 02:54:51;;;;;;;15.00;9.05;;;;;;;7.58;100.00;97377.09;5049425;28;20084;-69
2023/12/14 02:57:19;;;;;;;12.43;8.57;;;;;;;7.36;100.00;97347.41;5030266;28;20029;-69
2023/12/14 02:59:45;;;;;;;12.95;8.60;;;;;;;7.34;100.00;97340.75;5037925;28;20032;-71
2023/12/14 03:02:10;;;;;;;13.00;8.65;;;;;;;7.65;100.00;97390.22;5032747;28;20125;-69
2023/12/14 03:04:39;;;;;;;13.88;8.73;;;;;;;7.44;100.00;97365.53;5048620;28;21010;-68
2023/12/14 03:07:07;;;;;;;12.48;8.85;;;;;;;7.63;100.00;97394.72;5036959;28;20029;-69
2023/12/14 03:09:33;;;;;;;14.93;8.73;;;;;;;7.56;100.00;97396.31;5037367;28;20035;-71
2023/12/14 03:12:01;;;;;;;13.10;8.63;;;;;;;7.28;100.00;97361.13;5032297;28;20024;-71
2023/12/14 03:14:32;;;;;;;14.93;9.07;;;;;;;7.52;100.00;97401.00;5050558;28;20032;-69
2023/12/14 03:16:57;;;;;;;13.77;8.82;;;;;;;7.24;100.00;97359.78;5041239;28;20037;-66
2023/12/14 03:19:25;;;;;;;13.75;9.48;;;;;;;7.12;100.00;97361.84;5038738;28;20527;-70
2023/12/14 03:21:51;;;;;;;13.52;8.48;;;;;;;7.37;100.00;97407.69;5043636;28;20158;-70
2023/12/14 03:24:16;;;;;;;17.38;10.80;;;;;;;7.36;100.00;97416.44;5034740;28;20039;-69
2023/12/14 03:26:42;;;;;;;15.25;9.05;;;;;;;7.39;100.00;97416.09;5037259;28;20039;-70
2023/12/14 03:29:08;;;;;;;14.88;9.20;;;;;;;7.30;100.00;97416.06;5051015;28;20041;-69
2023/12/14 03:31:34;;;;;;;14.23;9.60;;;;;;;7.29;100.00;97418.81;5031723;28;20032;-70
2023/12/14 03:33:59;;;;;;;17.60;9.98;;;;;;;7.30;100.00;97433.34;5037151;28;20020;-70
2023/12/14 03:36:27;;;;;;;14.23;8.95;;;;;;;7.28;100.00;97423.19;5032458;28;20036;-68
2023/12/14 03:38:53;;;;;;;15.50;9.02;;;;;;;7.09;100.00;97431.13;5050505;28;20348;-69
2023/12/14 03:41:24;;;;;;;13.35;8.80;;;;;;;7.05;100.00;97433.19;5035074;28;20048;-72
2023/12/14 03:43:51;;;;;;;13.20;8.70;;;;;;;6.77;100.00;97393.75;5034950;28;20024;-69
2023/12/14 03:46:17;;;;;;;13.55;8.80;;;;;;;6.76;100.00;97430.09;5048375;28;20046;-70
2023/12/14 03:48:42;;;;;;;15.40;9.38;;;;;;;6.56;100.00;97422.50;5045820;28;20034;-68
2023/12/14 03:51:07;;;;;;;14.55;8.38;;;;;;;6.71;100.00;97433.91;5049227;28;20468;-69
2023/12/14 03:53:33;;;;;;;14.93;9.07;;;;;;;6.87;100.00;97435.81;5028500;28;20057;-66
2023/12/14 03:55:59;;;;;;;13.20;8.60;;;;;;;6.59;100.00;97388.63;5041033;28;20024;-69
2023/12/14 03:58:24;;;;;;;13.57;9.13;;;;;;;6.86;100.00;97438.53;5033213;28;20029;-70
2023/12/14 04:00:50;;;;;;;17.52;9.27;;;;;;;6.85;100.00;97440.31;5034520;28;20031;-69
2023/12/14 04:03:18;;;;;;;13.40;8.77;;;;;;;6.77;100.00;97448.00;5035646;28;20024;-71
2023/12/14 04:05:44;;;;;;;12.35;8.23;;;;;;;6.74;100.00;97456.06;5044631;28;20487;-72
2023/12/14 04:08:09;;;;;;;14.45;8.80;;;;;;;6.64;100.00;97432.88;5035348;28;20097;-72
2023/12/14 04:10:35;;;;;;;13.80;8.77;;;;;;;6.74;100.00;97462.03;5028814;28;20032;-73
2023/12/14 04:13:00;;;;;;;11.25;7.45;;;;;;;6.66;100.00;97458.56;5048703;28;20029;-69
2023/12/14 04:15:26;;;;;;;14.63;9.00;;;;;;;6.67;100.00;97475.69;5047277;28;20744;-70
2023/12/14 04:17:51;;;;;;;14.20;8.52;;;;;;;6.46;100.00;97443.22;5050832;28;20107;-70
2023/12/14 04:20:19;;;;;;;13.55;8.88;;;;;;;6.64;100.00;97476.78;5030088;28;20047;-68
2023/12/14 04:22:45;;;;;;;13.85;8.63;;;;;;;6.54;100.00;97469.13;5035765;28;20109;-70
2023/12/14 04:25:10;;;;;;;13.52;8.55;;;;;;;6.59;100.00;97473.84;5047967;28;20033;-70
2023/12/14 04:27:38;;;;;;;13.20;8.18;;;;;;;6.48;100.00;97468.88;5029676;28;20024;-71
2023/12/14 04:30:04;;;;;;;17.27;10.00;;;;;;;6.42;100.00;97483.19;5047097;28;20043;-70
2023/12/14 04:32:30;;;;;;;13.57;8.82;;;;;;;6.44;100.00;97470.94;5037413;28;20021;-70
2023/12/14 04:34:57;;;;;;;15.75;9.15;;;;;;;6.52;100.00;97485.72;5045001;28;20024;-71
2023/12/14 04:37:23;;;;;;;14.35;8.05;;;;;;;6.49;100.00;97484.25;5034418;28;20045;-71
2023/12/14 04:39:48;;;;;;;13.70;8.45;;;;;;;6.52;100.00;97491.69;5027531;28;20488;-69
2023/12/14 04:42:13;;;;;;;12.55;7.95;;;;;;;6.48;100.00;97487.78;5044461;28;20036;-70
2023/12/14 04:44:39;;;;;;;12.45;8.15;;;;;;;6.55;100.00;97495.75;5038502;28;20371;-70
2023/12/14 04:47:08;;;;;;;15.93;8.70;;;;;;;6.30;100.00;97459.38;5043012;28;20126;-68
2023/12/14 04:49:33;;;;;;;14.83;8.33;;;;;;;6.29;100.00;97449.97;5052283;28;20056;-70
2023/12/14 04:52:01;;;;;;;14.15;8.35;;;;;;;6.44;100.00;97491.59;5029603;28;20078;-69
2023/12/14 04:54:26;;;;;;;13.95;8.65;;;;;;;6.46;100.00;97505.22;5030941;28;20412;-69
2023/12/14 04:56:52;;;;;;;17.45;9.05;;;;;;;6.41;100.00;97501.44;5036913;28;20555;-67
2023/12/14 04:59:17;;;;;;;16.63;9.40;;;;;;;6.32;100.00;97503.13;5030986;28;20085;-72
2023/12/14 05:01:47;;;;;;;19.63;9.40;;;;;;;6.19;100.00;97490.56;5032538;28;20403;-70
2023/12/14 05:04:13;;;;;;;16.33;9.93;;;;;;;6.25;100.00;97486.56;5045564;28;20024;-69
2023/12/14 05:06:39;;;;;;;13.80;8.45;;;;;;;6.37;100.00;97497.50;5034709;28;20043;-71
2023/12/14 05:09:05;;;;;;;15.95;8.30;;;;;;;6.33;100.00;97495.22;5042858;28;20052;-69
2023/12/14 05:11:33;;;;;;;14.95;8.52;;;;;;;6.10;100.00;97463.84;5028812;28;20021;-71
2023/12/14 05:13:59;;;;;;;13.38;8.73;;;;;;;6.33;100.00;97508.13;5048938;28;20036;-70
2023/12/14 05:16:27;;;;;;;12.52;7.30;;;;;;;6.29;100.00;97509.38;5033056;28;20025;-70
2023/12/14 05:18:53;;;;;;;10.90;7.32;;;;;;;6.18;100.00;97516.50;5043579;28;20082;-68
2023/12/14 05:21:19;;;;;;;11.45;7.72;;;;;;;6.10;100.00;97530.94;5042904;28;20276;-71
2023/12/14 05:23:47;;;;;;;12.30;7.63;;;;;;;5.98;100.00;97495.94;5035775;28;20498;-70
2023/12/14 05:26:12;;;;;;;12.10;7.93;;;;;;;6.34;100.00;97517.50;5043785;28;20037;-71
2023/12/14 05:28:37;;;;;;;11.90;7.43;;;;;;;6.25;100.00;97520.94;5033519;28;20774;-71
2023/12/14 05:31:03;;;;;;;12.45;7.20;;;;;;;6.22;100.00;97528.97;5028797;28;20037;-72
2023/12/14 05:33:31;;;;;;;11.90;6.85;;;;;;;6.18;100.00;97524.25;5047213;28;20035;-71
2023/12/14 05:35:56;;;;;;;12.27;7.43;;;;;;;6.29;100.00;97536.97;5046153;28;20044;-67
2023/12/14 05:38:21;;;;;;;11.45;7.18;;;;;;;6.24;100.00;97526.25;5048420;28;20048;-70
2023/12/14 05:40:47;;;;;;;12.82;7.65;;;;;;;6.22;100.00;97525.56;5033886;28;20032;-75
2023/12/14 05:43:12;;;;;;;12.20;7.55;;;;;;;6.20;100.00;97532.66;5032391;28;20491;-71
2023/12/14 05:45:41;;;;;;;11.65;7.22;;;;;;;6.18;100.00;97540.53;5048905;28;20471;-66
2023/12/14 05:48:06;;;;;;;11.10;6.93;;;;;;;6.27;100.00;97538.88;5027621;28;20043;-67
2023/12/14 05:50:36;;;;;;;12.60;7.20;;;;;;;6.25;100.00;97541.59;5030960;28;20037;-68
2023/12/14 05:53:01;;;;;;;10.57;6.35;;;;;;;6.37;100.00;97551.72;5029646;28;20091;-71
2023/12/14 05:55:27;;;;;;;11.38;7.20;;;;;;;6.29;100.00;97544.69;5047930;28;21167;-68
2023/12/14 05:57:54;;;;;;;12.05;7.15;;;;;;;6.34;100.00;97558.81;5031290;28;20025;-69
2023/12/14 06:00:19;;;;;;;12.68;6.70;;;;;;;6.43;100.00;97564.88;5034091;28;20567;-71
2023/12/14 06:02:47;;;;;;;11.80;6.78;;;;;;;6.37;100.00;97555.13;5045813;28;20024;-70
2023/12/14 06:05:12;;;;;;;11.82;6.78;;;;;;;6.39;100.00;97571.28;5027236;28;20033;-69
2023/12/14 06:07:40;;;;;;;11.15;6.97;;;;;;;6.25;100.00;97576.94;5045144;28;20032;-68
2023/12/14 06:10:06;;;;;;;11.65;6.80;;;;;;;6.31;100.00;97584.09;5028963;28;20095;-71
2023/12/14 06:12:34;;;;;;;10.73;6.43;;;;;;;6.46;100.00;97590.44;5048447;28;21399;-68
2023/12/14 06:15:01;;;;;;;10.60;6.15;;;;;;;6.51;100.00;97595.16;5042980;28;20738;-71
2023/12/14 06:17:27;;;;;;;9.80;6.10;;;;;;;6.46;100.00;97590.44;5045035;28;20039;-69
2023/12/14 06:19:52;;;;;;;9.82;5.95;;;;;;;6.65;100.00;97607.59;5033881;28;20032;-70
2023/12/14 06:22:18;;;;;;;10.65;6.57;;;;;;;6.56;100.00;97612.81;5047848;28;20028;-70
2023/12/14 06:24:46;;;;;;;10.75;6.57;;;;;;;6.60;100.00;97612.38;5026560;28;21401;-70
2023/12/14 06:27:11;;;;;;;11.10;7.45;;;;;;;6.57;100.00;97617.00;5036470;28;20033;-71
2023/12/14 06:29:39;;;;;;;12.25;8.07;;;;;;;6.48;100.00;97626.41;5044242;28;20037;-70
2023/12/14 06:32:04;;;;;;;12.88;8.13;;;;;;;6.15;100.00;97590.69;5052337;28;20036;-68
2023/12/14 06:34:30;;;;;;;13.25;7.57;;;;;;;6.15;100.00;97585.53;5032096;28;20467;-68
2023/12/14 06:36:57;;;;;;;12.02;7.15;;;;;;;6.52;100.00;97638.09;5031780;28;20443;-71
2023/12/14 06:39:23;;;;;;;11.52;6.75;;;;;;;6.46;100.00;97636.06;5034469;28;20028;-70
2023/12/14 06:41:48;;;;;;;9.98;6.05;;;;;;;6.19;100.00;97640.25;5044197;28;20140;-70
2023/12/14 06:44:18;;;;;;;9.30;5.75;;;;;;;6.13;100.00;97644.22;5050492;28;20040;-69
2023/12/14 06:46:46;;;;;;;10.57;6.05;;;;;;;6.18;100.00;97645.56;5040512;28;20025;-67
2023/12/14 06:49:11;;;;;;;9.88;5.63;;;;;;;6.15;100.00;97649.22;5031641;28;20543;-69
2023/12/14 06:51:37;;;;;;;11.13;5.88;;;;;;;6.19;100.00;97642.00;5036466;28;20086;-70
2023/12/14 06:54:03;;;;;;;9.23;5.38;;;;;;;6.18;100.00;97637.81;5028591;28;20052;-70
2023/12/14 06:56:28;;;;;;;8.82;5.55;;;;;;;6.25;100.00;97651.78;5033320;28;20147;-71
2023/12/14 06:58:53;;;;;;;10.15;5.70;;;;;;;6.24;100.00;97642.41;5033002;28;20024;-69
2023/12/14 07:01:21;;;;;;;9.63;5.65;;;;;;;6.28;100.00;97647.16;5044942;28;20032;-68
2023/12/14 07:03:47;;;;;;;9.48;5.20;;;;;;;6.23;100.00;97651.94;5049055;28;20044;-71
2023/12/14 07:06:17;;;;;;;8.95;5.20;;;;;;;6.17;100.00;97655.09;5035003;28;20020;-72
2023/12/14 07:08:42;;;;;;;;;;;;;;;6.23;100.00;97661.44;5034744;28;20040;-72
2023/12/14 07:11:08;;;;;;;9.35;5.32;;;;;;;6.23;100.00;97654.50;5050176;28;19920;-69
2023/12/14 07:13:36;;;;;;;8.85;5.15;;;;;;;6.22;100.00;97670.94;5036354;28;20033;-71
2023/12/14 07:16:03;;;;;;;8.90;5.13;;;;;;;6.38;100.00;97685.03;5052878;28;20127;-72
2023/12/14 07:18:31;;;;;;;9.23;5.40;;;;;;;5.94;100.00;97636.50;5028312;28;20044;-69
2023/12/14 07:20:57;;;;;;;10.77;6.20;;;;;;;6.29;100.00;97691.84;5029288;28;20068;-72
2023/12/14 07:23:24;;;;;;;9.18;5.55;;;;;;;6.34;100.00;97695.66;5033855;28;20127;-70
2023/12/14 07:25:52;;;;;;;8.60;4.82;;;;;;;6.33;100.00;97696.63;5041533;28;20427;-71
2023/12/14 07:28:21;;;;;;;8.60;4.95;;;;;;;6.35;100.00;97699.88;5032255;28;20033;-66
2023/12/14 07:30:46;;;;;;;10.05;5.30;;;;;;;6.11;100.00;97658.22;5045297;28;20086;-72
2023/12/14 07:33:19;;;;;;;8.57;5.05;;;;;;;6.46;100.00;97710.97;5036869;28;20123;-70
2023/12/14 07:35:45;;;;;;;8.27;4.75;;;;;;;6.41;100.00;97720.94;5030171;28;20028;-71
2023/12/14 07:38:15;;;;;;;9.73;5.25;;;;;;;5.88;100.00;97675.75;5051961;28;20025;-71
2023/12/14 07:40:42;;;;;;;8.85;5.40;;;;;;;5.97;100.00;97688.66;5035708;28;20033;-71
2023/12/14 07:43:08;;;;;;;10.75;5.13;;;;;;;6.25;100.00;97718.91;5038844;28;20689;-67
2023/12/14 07:45:34;;;;;;;8.73;4.85;;;;;;;6.24;100.00;97715.53;5043547;28;20041;-71
2023/12/14 07:47:59;;;;;;;8.48;5.35;;;;;;;5.92;100.00;97685.66;5035376;28;20020;-70
2023/12/14 07:50:25;;;;;;;9.23;5.43;;;;;;;6.19;100.00;97732.34;5048571;28;20428;-66
2023/12/14 07:52:51;;;;;;;9.00;5.20;;;;;;;6.16;100.00;97739.44;5030106;28;20029;-72
2023/12/14 07:55:17;;;;;;;7.80;4.55;;;;;;;6.15;100.00;97734.41;5033127;28;20070;-72
2023/12/14 07:57:42;;;;;;;8.40;4.95;;;;;;;6.13;100.00;97741.47;5050208;28;20040;-70
2023/12/14 08:00:10;;;;;;;9.38;5.40;;;;;;;6.18;100.00;97738.50;5033656;28;20452;-66
2023/12/14 08:02:35;;;;;;;9.02;5.43;;;;;;;6.20;100.00;97739.16;5032433;28;20529;-67
2023/12/14 08:05:03;;;;;;;9.85;5.53;;;;;;;6.20;100.00;97742.56;5035997;28;20029;-66
2023/12/14 08:07:29;;;;;;;9.15;5.43;;;;;;;6.22;100.00;97753.56;5052410;28;20032;-65
2023/12/14 08:09:55;;;;;;;8.25;4.97;;;;;;;6.14;100.00;97750.84;5032039;28;20056;-67
2023/12/14 08:12:21;;;;;;;7.80;4.63;;;;;;;6.20;100.00;97770.13;5034425;28;20040;-68
2023/12/14 08:14:49;;;;;;;8.18;4.90;;;;;;;6.32;100.00;97758.72;5035029;28;20164;-66
2023/12/14 08:17:17;;;;;;;8.88;4.95;;;;;;;6.09;100.00;97714.31;5045821;28;20024;-67
2023/12/14 08:19:43;;;;;;;8.52;5.28;;;;;;;6.35;100.00;97754.09;5040840;28;20885;-66
2023/12/14 08:22:11;;;;;;;8.95;5.60;;;;;;;6.22;100.00;97725.16;5032214;28;20044;-67
2023/12/14 08:24:37;;;;;;;13.45;6.53;;;;;;;6.47;100.00;97769.41;5047820;28;20033;-68
2023/12/14 08:27:03;;;;;;;12.25;7.30;;;;;;;6.32;100.00;97771.63;5047010;28;21662;-67
2023/12/14 08:29:31;;;;;;;10.68;5.68;;;;;;;6.19;100.00;97755.59;5040043;28;20056;-68
2023/12/14 08:31:57;;;;;;;9.60;5.55;;;;;;;6.21;100.00;97770.00;5045823;28;20027;-69
2023/12/14 08:34:28;;;;;;;9.70;5.47;;;;;;;6.33;100.00;97779.25;5032386;28;20036;-66
2023/12/14 08:36:56;;;;;;;9.07;4.90;;;;;;;6.38;100.00;97780.59;5044884;28;20719;-67
2023/12/14 08:39:24;;;;;;;10.23;5.72;;;;;;;6.32;100.00;97785.34;5030882;28;19924;-66
2023/12/14 08:41:49;;;;;;;9.25;5.20;;;;;;;6.13;100.00;97742.31;5046864;28;20578;-68
2023/12/14 08:44:15;;;;;;;9.23;5.00;;;;;;;6.51;100.00;97786.25;5047023;28;20044;-66
2023/12/14 08:46:46;;;;;;;7.47;4.28;;;;;;;6.54;100.00;97794.53;5032627;28;20033;-68
2023/12/14 08:49:12;;;;;;;9.10;4.50;;;;;;;6.41;100.00;97788.06;5046074;28;20082;-68
2023/12/14 08:51:38;;;;;;;7.45;4.30;;;;;;;6.37;100.00;97786.69;5047486;28;20122;-67
2023/12/14 08:54:04;;;;;;;7.90;4.35;;;;;;;6.40;100.00;97805.31;5052071;28;20510;-69
2023/12/14 08:56:32;;;;;;;7.80;4.55;;;;;;;6.37;100.00;97795.28;5031514;28;20064;-67
2023/12/14 08:58:59;;;;;;;7.97;4.07;;;;;;;6.24;100.00;97769.75;5035519;28;20035;-66
2023/12/14 09:01:26;;;;;;;6.30;3.47;;;;;;;6.26;100.00;97762.66;5048129;28;20051;-69
2023/12/14 09:03:52;;;;;;;7.15;3.40;;;;;;;6.63;100.00;97812.75;5024534;28;20036;-69
2023/12/14 09:06:18;;;;;;;7.25;3.95;;;;;;;6.84;100.00;97812.56;5028728;28;20059;-68
2023/12/14 09:08:46;;;;;;;8.02;3.47;;;;;;;6.79;100.00;97812.16;5035284;28;20071;-66
2023/12/14 09:11:12;;;;;;;8.68;4.85;;;;;;;6.81;100.00;97818.00;5029879;28;20044;-68
2023/12/14 09:13:37;;;;;;;10.30;4.88;;;;;;;6.51;100.00;97781.91;5034288;28;20545;-67
2023/12/14 09:16:05;;;;;;;9.45;5.03;;;;;;;6.74;100.00;97825.53;5022135;28;20108;-66
2023/12/14 09:18:31;;;;;;;10.25;4.70;;;;;;;6.83;100.00;97836.78;5037193;28;20126;-66
2023/12/14 09:20:56;;;;;;;13.30;6.65;;;;;;;6.86;100.00;97847.66;5036409;28;21062;-66
2023/12/14 09:23:22;;;;;;;11.10;5.97;;;;;;;6.74;100.00;97851.34;5044388;28;20583;-68
2023/12/14 09:25:52;;;;;;;13.40;7.43;;;;;;;6.68;100.00;97862.22;5025926;28;20464;-66
2023/12/14 09:28:18;;;;;;;12.25;6.50;;;;;;;6.44;100.00;97811.81;5040096;28;20070;-68
2023/12/14 09:30:45;;;;;;;11.60;5.82;;;;;;;6.69;100.00;97862.09;5025775;28;20036;-67
2023/12/14 09:33:11;;;;;;;15.18;6.65;;;;;;;6.48;100.00;97826.09;5022405;28;20024;-66
2023/12/14 09:35:36;;;;;;;8.50;4.65;;;;;;;6.87;100.00;97859.63;5044833;28;20021;-69
2023/12/14 09:38:03;;;;;;;9.90;4.97;;;;;;;6.88;100.00;97866.44;5036087;28;20475;-67
2023/12/14 09:40:31;;;;;;;10.00;4.80;;;;;;;7.02;100.00;97882.44;5028957;28;20523;-70
2023/12/14 09:42:56;;;;;;;10.43;5.63;;;;;;;6.86;100.00;97872.66;5039000;28;20113;-68
2023/12/14 09:45:28;;;;;;;7.20;4.07;;;;;;;6.89;100.00;97880.16;5047292;28;20038;-68
2023/12/14 09:47:54;;;;;;;8.38;3.70;;;;;;;6.93;100.00;97871.16;5027166;28;20044;-71
2023/12/14 09:50:20;;;;;;;7.00;3.58;;;;;;;7.00;100.00;97877.41;5019178;28;20060;-67
2023/12/14 09:52:49;;;;;;;7.00;3.60;;;;;;;7.15;100.00;97874.38;5040937;28;20084;-70
2023/12/14 09:55:15;;;;;;;7.40;3.72;;;;;;;7.08;100.00;97881.88;5028762;28;20076;-69
2023/12/14 09:57:40;;;;;;;8.50;3.95;;;;;;;7.09;100.00;97876.56;5040632;28;20051;-69
2023/12/14 10:00:14;;;;;;;7.50;3.72;;;;;;;7.23;100.00;97879.66;5023576;28;20756;-68
2023/12/14 10:02:39;;;;;;;8.52;4.25;;;;;;;7.25;100.00;97877.75;5046105;28;20573;-70
2023/12/14 10:05:09;;;;;;;8.90;4.50;;;;;;;6.86;100.00;97828.72;5040447;28;20032;-67
2023/12/14 10:07:41;;;;;;;8.70;3.88;;;;;;;7.12;100.00;97836.69;5023733;28;20078;-65
2023/12/14 10:10:11;;;;;;;6.57;3.50;;;;;;;7.38;100.00;97888.59;5024072;28;20029;-68
2023/12/14 10:12:53;;;;;;;6.95;4.15;;;;;;;7.24;100.00;97864.00;5044251;28;20484;-70
2023/12/14 10:15:18;;;;;;;9.52;4.30;;;;;;;7.37;100.00;97891.31;5049224;28;20119;-68
2023/12/14 10:17:44;;;;;;;8.80;4.10;;;;;;;7.32;100.00;97882.22;5043568;28;20490;-69
2023/12/14 10:20:09;;;;;;;8.90;3.75;;;;;;;7.48;100.00;97885.94;5043506;28;20024;-65
2023/12/14 10:22:37;;;;;;;6.82;3.97;;;;;;;7.62;100.00;97880.31;5038003;28;20035;-66
2023/12/14 10:25:03;;;;;;;9.93;4.22;;;;;;;7.73;100.00;97878.50;5027689;28;20102;-65
2023/12/14 10:27:33;;;;;;;8.85;3.50;;;;;;;7.84;100.00;97886.84;5025976;28;20156;-66
2023/12/14 10:29:58;;;;;;;7.20;3.60;;;;;;;7.91;100.00;97883.72;5040297;28;20028;-69
2023/12/14 10:32:24;;;;;;;6.07;3.20;;;;;;;8.04;100.00;97889.34;5038997;28;20101;-67
2023/12/14 10:34:49;;;;;;;6.75;3.35;;;;;;;8.01;100.00;97887.88;5041595;28;20035;-67
2023/12/14 10:37:15;;;;;;;6.00;3.15;;;;;;;7.98;100.00;97856.28;5026423;28;20044;-68
2023/12/14 10:39:42;;;;;;;7.07;2.97;;;;;;;8.17;100.00;97894.16;5040443;28;20036;-67
2023/12/14 10:42:10;;;;;;;6.20;3.20;;;;;;;8.30;100.00;97889.44;5043624;28;20371;-69
2023/12/14 10:44:37;;;;;;;6.45;3.05;;;;;;;8.09;100.00;97843.91;5028246;28;20056;-67
2023/12/14 10:47:07;;;;;;;7.47;3.10;;;;;;;8.43;100.00;97883.91;5034175;28;20037;-70
2023/12/14 10:49:36;;;;;;;7.00;3.45;;;;;;;8.46;100.00;97899.16;5038570;28;20059;-68
2023/12/14 10:52:03;;;;;;;7.85;3.45;;;;;;;8.35;100.00;97876.84;5032647;28;20050;-68
2023/12/14 10:54:31;;;;;;;6.38;3.45;;;;;;;8.58;100.00;97915.28;5044387;28;20137;-68
2023/12/14 10:56:58;;;;;;;8.30;4.35;;;;;;;8.69;100.00;97917.66;5041679;28;20041;-67
2023/12/14 10:59:24;;;;;;;7.88;4.10;;;;;;;8.72;100.00;97911.34;5031735;28;20039;-68
2023/12/14 11:01:57;;;;;;;7.43;3.47;;;;;;;8.69;100.00;97902.13;5020751;28;20036;-70
2023/12/14 11:04:22;;;;;;;7.07;3.00;;;;;;;8.68;100.00;97904.84;5032476;28;20045;-69
2023/12/14 11:06:53;;;;;;;6.97;2.70;;;;;;;8.71;100.00;97912.34;5025036;28;20036;-68
2023/12/14 11:09:21;;;;;;;5.93;2.47;;;;;;;8.80;100.00;97919.22;5029446;28;20024;-70
2023/12/14 11:11:53;;;;;;;4.40;2.10;;;;;;;8.82;100.00;97922.47;5043895;28;20020;-71
2023/12/14 11:14:18;;;;;;;4.95;2.38;;;;;;;8.86;100.00;97908.22;5036695;28;20033;-69
2023/12/14 11:16:46;;;;;;;5.13;2.50;;;;;;;8.85;100.00;97912.59;5041938;28;20035;-70
2023/12/14 11:19:32;;;;;;;5.82;2.60;;;;;;;8.89;100.00;97909.69;5038307;28;20566;-67
2023/12/14 11:22:23;;;;;;;5.68;2.67;;;;;;;8.92;100.00;97909.41;5041458;28;20379;-67
2023/12/14 11:24:55;;;;;;;5.70;2.40;;;;;;;8.98;100.00;97916.56;5021883;28;20032;-69